sensor_id;sensor_type;location;lat;lon;timestamp;P1;durP1;ratioP1;P2;durP2;ratioP2
8881;SDS011;4477;48.736;9.176;2024-03-17T00:00:19;23.97;;;14.13;;
8881;SDS011;4477;48.736;9.176;2024-03-17T00:02:45;25.07;;;14.57;;
8881;SDS011;4477;48.736;9.176;2024-03-17T00:05:12;23.60;;;14.57;;
8881;SDS011;4477;48.736;9.176;2024-03-17T00:07:40;21.67;;;13.77;;
8881;SDS011;4477;48.736;9.176;2024-03-17T00:10:07;25.60;;;14.50;;
8881;SDS011;4477;48.736;9.176;2024-03-17T00:12:33;22.27;;;13.77;;
8881;SDS011;4477;48.736;9.176;2024-03-17T00:15:00;23.57;;;13.87;;
8881;SDS011;4477;48.736;9.176;2024-03-17T00:17:26;23.17;;;14.10;;
8881;SDS011;4477;48.736;9.176;2024-03-17T00:19:53;27.13;;;14.23;;
8881;SDS011;4477;48.736;9.176;2024-03-17T00:22:20;26.03;;;14.30;;
8881;SDS011;4477;48.736;9.176;2024-03-17T00:24:49;24.20;;;13.37;;
8881;SDS011;4477;48.736;9.176;2024-03-17T00:27:14;22.87;;;13.73;;
8881;SDS011;4477;48.736;9.176;2024-03-17T00:29:41;21.73;;;12.83;;
8881;SDS011;4477;48.736;9.176;2024-03-17T00:32:07;25.80;;;14.20;;
8881;SDS011;4477;48.736;9.176;2024-03-17T00:34:36;20.93;;;13.37;;
8881;SDS011;4477;48.736;9.176;2024-03-17T00:37:02;23.40;;;13.87;;
8881;SDS011;4477;48.736;9.176;2024-03-17T00:39:29;22.30;;;13.17;;
8881;SDS011;4477;48.736;9.176;2024-03-17T00:41:57;23.50;;;12.83;;
8881;SDS011;4477;48.736;9.176;2024-03-17T00:44:23;24.13;;;13.63;;
8881;SDS011;4477;48.736;9.176;2024-03-17T00:46:49;23.63;;;12.90;;
8881;SDS011;4477;48.736;9.176;2024-03-17T00:49:16;25.53;;;13.63;;
8881;SDS011;4477;48.736;9.176;2024-03-17T00:51:42;31.60;;;15.07;;
8881;SDS011;4477;48.736;9.176;2024-03-17T00:54:13;26.23;;;15.03;;
8881;SDS011;4477;48.736;9.176;2024-03-17T00:56:38;35.40;;;16.43;;
8881;SDS011;4477;48.736;9.176;2024-03-17T00:59:07;26.40;;;14.20;;
8881;SDS011;4477;48.736;9.176;2024-03-17T01:01:33;34.40;;;16.40;;
8881;SDS011;4477;48.736;9.176;2024-03-17T01:04:00;31.57;;;15.13;;
8881;SDS011;4477;48.736;9.176;2024-03-17T01:06:26;32.23;;;14.80;;
8881;SDS011;4477;48.736;9.176;2024-03-17T01:08:53;33.50;;;15.83;;
8881;SDS011;4477;48.736;9.176;2024-03-17T01:11:20;33.03;;;15.60;;
8881;SDS011;4477;48.736;9.176;2024-03-17T01:13:47;34.90;;;16.50;;
8881;SDS011;4477;48.736;9.176;2024-03-17T01:16:14;33.07;;;16.20;;
8881;SDS011;4477;48.736;9.176;2024-03-17T01:18:42;39.33;;;16.77;;
8881;SDS011;4477;48.736;9.176;2024-03-17T01:21:10;32.70;;;16.20;;
8881;SDS011;4477;48.736;9.176;2024-03-17T01:23:37;31.60;;;15.67;;
8881;SDS011;4477;48.736;9.176;2024-03-17T01:26:02;35.00;;;17.63;;
8881;SDS011;4477;48.736;9.176;2024-03-17T01:28:30;34.43;;;16.13;;
8881;SDS011;4477;48.736;9.176;2024-03-17T01:30:57;38.40;;;16.87;;
8881;SDS011;4477;48.736;9.176;2024-03-17T01:33:24;35.10;;;17.10;;
8881;SDS011;4477;48.736;9.176;2024-03-17T01:35:52;35.17;;;17.37;;
8881;SDS011;4477;48.736;9.176;2024-03-17T01:38:18;40.67;;;19.33;;
8881;SDS011;4477;48.736;9.176;2024-03-17T01:40:46;37.33;;;18.67;;
8881;SDS011;4477;48.736;9.176;2024-03-17T01:43:12;38.47;;;18.63;;
8881;SDS011;4477;48.736;9.176;2024-03-17T01:45:39;43.23;;;18.73;;
8881;SDS011;4477;48.736;9.176;2024-03-17T01:48:08;38.73;;;17.80;;
8881;SDS011;4477;48.736;9.176;2024-03-17T01:50:41;43.10;;;19.27;;
8881;SDS011;4477;48.736;9.176;2024-03-17T01:53:09;40.23;;;18.97;;
8881;SDS011;4477;48.736;9.176;2024-03-17T01:55:38;46.60;;;20.57;;
8881;SDS011;4477;48.736;9.176;2024-03-17T01:58:07;41.07;;;19.53;;
8881;SDS011;4477;48.736;9.176;2024-03-17T02:00:35;49.63;;;22.07;;
8881;SDS011;4477;48.736;9.176;2024-03-17T02:03:02;44.27;;;19.67;;
8881;SDS011;4477;48.736;9.176;2024-03-17T02:05:30;38.57;;;19.43;;
8881;SDS011;4477;48.736;9.176;2024-03-17T02:07:57;46.47;;;22.57;;
8881;SDS011;4477;48.736;9.176;2024-03-17T02:10:24;47.77;;;22.80;;
8881;SDS011;4477;48.736;9.176;2024-03-17T02:12:50;49.10;;;23.00;;
8881;SDS011;4477;48.736;9.176;2024-03-17T02:15:19;42.47;;;21.67;;
8881;SDS011;4477;48.736;9.176;2024-03-17T02:17:45;51.03;;;23.43;;
8881;SDS011;4477;48.736;9.176;2024-03-17T02:20:12;47.50;;;22.07;;
8881;SDS011;4477;48.736;9.176;2024-03-17T02:22:40;47.47;;;23.03;;
8881;SDS011;4477;48.736;9.176;2024-03-17T02:25:07;49.93;;;23.47;;
8881;SDS011;4477;48.736;9.176;2024-03-17T02:27:34;49.57;;;22.83;;
8881;SDS011;4477;48.736;9.176;2024-03-17T02:30:01;50.10;;;25.53;;
8881;SDS011;4477;48.736;9.176;2024-03-17T02:32:27;42.47;;;22.33;;
8881;SDS011;4477;48.736;9.176;2024-03-17T02:34:54;51.97;;;25.90;;
8881;SDS011;4477;48.736;9.176;2024-03-17T02:37:22;51.33;;;24.67;;
8881;SDS011;4477;48.736;9.176;2024-03-17T02:39:49;49.37;;;25.17;;
8881;SDS011;4477;48.736;9.176;2024-03-17T02:42:19;48.57;;;25.73;;
8881;SDS011;4477;48.736;9.176;2024-03-17T02:44:45;56.43;;;26.73;;
8881;SDS011;4477;48.736;9.176;2024-03-17T02:47:12;53.33;;;25.90;;
8881;SDS011;4477;48.736;9.176;2024-03-17T02:49:40;51.93;;;27.53;;
8881;SDS011;4477;48.736;9.176;2024-03-17T02:52:09;52.37;;;25.80;;
8881;SDS011;4477;48.736;9.176;2024-03-17T02:54:37;48.93;;;24.27;;
8881;SDS011;4477;48.736;9.176;2024-03-17T02:57:06;49.27;;;24.77;;
8881;SDS011;4477;48.736;9.176;2024-03-17T02:59:33;50.77;;;25.07;;
8881;SDS011;4477;48.736;9.176;2024-03-17T03:02:00;56.60;;;26.17;;
8881;SDS011;4477;48.736;9.176;2024-03-17T03:04:28;52.80;;;28.03;;
8881;SDS011;4477;48.736;9.176;2024-03-17T03:06:55;52.80;;;27.07;;
8881;SDS011;4477;48.736;9.176;2024-03-17T03:09:20;56.67;;;27.90;;
8881;SDS011;4477;48.736;9.176;2024-03-17T03:11:51;57.60;;;28.37;;
8881;SDS011;4477;48.736;9.176;2024-03-17T03:14:20;61.13;;;27.70;;
8881;SDS011;4477;48.736;9.176;2024-03-17T03:16:47;58.87;;;28.47;;
8881;SDS011;4477;48.736;9.176;2024-03-17T03:19:15;55.60;;;29.33;;
8881;SDS011;4477;48.736;9.176;2024-03-17T03:21:44;61.80;;;32.17;;
8881;SDS011;4477;48.736;9.176;2024-03-17T03:24:11;56.57;;;29.83;;
8881;SDS011;4477;48.736;9.176;2024-03-17T03:26:38;59.10;;;29.80;;
8881;SDS011;4477;48.736;9.176;2024-03-17T03:29:05;70.10;;;34.73;;
8881;SDS011;4477;48.736;9.176;2024-03-17T03:31:33;67.87;;;33.23;;
8881;SDS011;4477;48.736;9.176;2024-03-17T03:34:01;122.80;;;60.03;;
8881;SDS011;4477;48.736;9.176;2024-03-17T03:36:28;135.53;;;60.87;;
8881;SDS011;4477;48.736;9.176;2024-03-17T03:38:55;187.90;;;85.87;;
8881;SDS011;4477;48.736;9.176;2024-03-17T03:41:23;209.77;;;93.03;;
8881;SDS011;4477;48.736;9.176;2024-03-17T03:43:50;212.63;;;94.53;;
8881;SDS011;4477;48.736;9.176;2024-03-17T03:46:17;213.17;;;93.77;;
8881;SDS011;4477;48.736;9.176;2024-03-17T03:48:47;216.53;;;94.97;;
8881;SDS011;4477;48.736;9.176;2024-03-17T03:51:14;257.33;;;109.97;;
8881;SDS011;4477;48.736;9.176;2024-03-17T03:53:41;211.07;;;92.63;;
8881;SDS011;4477;48.736;9.176;2024-03-17T03:56:08;109.47;;;52.40;;
8881;SDS011;4477;48.736;9.176;2024-03-17T03:58:35;97.13;;;46.57;;
8881;SDS011;4477;48.736;9.176;2024-03-17T04:01:04;80.40;;;39.17;;
8881;SDS011;4477;48.736;9.176;2024-03-17T04:03:31;72.77;;;36.77;;
8881;SDS011;4477;48.736;9.176;2024-03-17T04:06:04;73.70;;;35.67;;
8881;SDS011;4477;48.736;9.176;2024-03-17T04:08:33;69.87;;;33.93;;
8881;SDS011;4477;48.736;9.176;2024-03-17T04:11:00;78.30;;;36.10;;
8881;SDS011;4477;48.736;9.176;2024-03-17T04:13:27;67.47;;;36.20;;
8881;SDS011;4477;48.736;9.176;2024-03-17T04:15:55;73.13;;;36.77;;
8881;SDS011;4477;48.736;9.176;2024-03-17T04:18:25;66.87;;;34.90;;
8881;SDS011;4477;48.736;9.176;2024-03-17T04:20:55;74.07;;;35.10;;
8881;SDS011;4477;48.736;9.176;2024-03-17T04:23:24;69.10;;;34.87;;
8881;SDS011;4477;48.736;9.176;2024-03-17T04:25:51;64.93;;;32.50;;
8881;SDS011;4477;48.736;9.176;2024-03-17T04:28:19;76.37;;;34.77;;
8881;SDS011;4477;48.736;9.176;2024-03-17T04:30:45;63.70;;;31.60;;
8881;SDS011;4477;48.736;9.176;2024-03-17T04:33:14;59.47;;;31.87;;
8881;SDS011;4477;48.736;9.176;2024-03-17T04:35:42;64.57;;;31.93;;
8881;SDS011;4477;48.736;9.176;2024-03-17T04:38:09;58.37;;;30.17;;
8881;SDS011;4477;48.736;9.176;2024-03-17T04:40:40;56.00;;;29.23;;
8881;SDS011;4477;48.736;9.176;2024-03-17T04:43:08;56.77;;;28.07;;
8881;SDS011;4477;48.736;9.176;2024-03-17T04:45:35;60.47;;;29.97;;
8881;SDS011;4477;48.736;9.176;2024-03-17T04:48:02;64.10;;;32.23;;
8881;SDS011;4477;48.736;9.176;2024-03-17T04:50:30;66.97;;;31.30;;
8881;SDS011;4477;48.736;9.176;2024-03-17T04:52:57;75.57;;;34.27;;
8881;SDS011;4477;48.736;9.176;2024-03-17T04:55:24;74.23;;;33.93;;
8881;SDS011;4477;48.736;9.176;2024-03-17T04:57:53;64.13;;;32.47;;
8881;SDS011;4477;48.736;9.176;2024-03-17T05:00:20;67.03;;;32.87;;
8881;SDS011;4477;48.736;9.176;2024-03-17T05:02:47;59.40;;;31.07;;
8881;SDS011;4477;48.736;9.176;2024-03-17T05:05:14;61.80;;;30.13;;
8881;SDS011;4477;48.736;9.176;2024-03-17T05:07:41;58.17;;;28.70;;
8881;SDS011;4477;48.736;9.176;2024-03-17T05:10:08;60.90;;;30.60;;
8881;SDS011;4477;48.736;9.176;2024-03-17T05:12:35;66.43;;;33.20;;
8881;SDS011;4477;48.736;9.176;2024-03-17T05:15:04;61.00;;;30.40;;
8881;SDS011;4477;48.736;9.176;2024-03-17T05:17:35;55.20;;;29.17;;
8881;SDS011;4477;48.736;9.176;2024-03-17T05:20:05;64.57;;;29.90;;
8881;SDS011;4477;48.736;9.176;2024-03-17T05:22:35;55.87;;;29.70;;
8881;SDS011;4477;48.736;9.176;2024-03-17T05:25:02;61.43;;;30.80;;
8881;SDS011;4477;48.736;9.176;2024-03-17T05:27:29;56.67;;;28.83;;
8881;SDS011;4477;48.736;9.176;2024-03-17T05:29:56;55.10;;;30.87;;
8881;SDS011;4477;48.736;9.176;2024-03-17T05:32:24;59.83;;;31.87;;
8881;SDS011;4477;48.736;9.176;2024-03-17T05:34:52;61.27;;;30.67;;
8881;SDS011;4477;48.736;9.176;2024-03-17T05:37:19;55.40;;;28.57;;
8881;SDS011;4477;48.736;9.176;2024-03-17T05:39:46;58.40;;;29.33;;
8881;SDS011;4477;48.736;9.176;2024-03-17T05:42:13;59.43;;;30.60;;
8881;SDS011;4477;48.736;9.176;2024-03-17T05:44:40;57.03;;;28.30;;
8881;SDS011;4477;48.736;9.176;2024-03-17T05:47:16;59.57;;;30.73;;
8881;SDS011;4477;48.736;9.176;2024-03-17T05:49:45;52.77;;;27.23;;
8881;SDS011;4477;48.736;9.176;2024-03-17T05:52:12;52.87;;;28.33;;
8881;SDS011;4477;48.736;9.176;2024-03-17T05:54:39;55.67;;;28.80;;
8881;SDS011;4477;48.736;9.176;2024-03-17T05:57:06;66.77;;;32.73;;
8881;SDS011;4477;48.736;9.176;2024-03-17T05:59:34;82.37;;;46.73;;
8881;SDS011;4477;48.736;9.176;2024-03-17T06:02:01;59.03;;;32.03;;
8881;SDS011;4477;48.736;9.176;2024-03-17T06:04:28;66.77;;;31.83;;
8881;SDS011;4477;48.736;9.176;2024-03-17T06:06:57;54.17;;;28.90;;
8881;SDS011;4477;48.736;9.176;2024-03-17T06:09:25;56.70;;;29.03;;
8881;SDS011;4477;48.736;9.176;2024-03-17T06:11:52;51.27;;;28.23;;
8881;SDS011;4477;48.736;9.176;2024-03-17T06:14:19;52.00;;;27.60;;
8881;SDS011;4477;48.736;9.176;2024-03-17T06:16:46;51.50;;;29.53;;
8881;SDS011;4477;48.736;9.176;2024-03-17T06:19:14;47.10;;;27.47;;
8881;SDS011;4477;48.736;9.176;2024-03-17T06:21:41;48.50;;;28.90;;
8881;SDS011;4477;48.736;9.176;2024-03-17T06:24:10;53.33;;;30.90;;
8881;SDS011;4477;48.736;9.176;2024-03-17T06:26:37;48.67;;;29.90;;
8881;SDS011;4477;48.736;9.176;2024-03-17T06:29:04;48.67;;;28.60;;
8881;SDS011;4477;48.736;9.176;2024-03-17T06:31:31;49.80;;;28.90;;
8881;SDS011;4477;48.736;9.176;2024-03-17T06:33:58;49.60;;;28.47;;
8881;SDS011;4477;48.736;9.176;2024-03-17T06:36:25;47.57;;;28.57;;
8881;SDS011;4477;48.736;9.176;2024-03-17T06:38:52;47.07;;;28.10;;
8881;SDS011;4477;48.736;9.176;2024-03-17T06:41:21;48.57;;;27.83;;
8881;SDS011;4477;48.736;9.176;2024-03-17T06:43:48;49.07;;;30.23;;
8881;SDS011;4477;48.736;9.176;2024-03-17T06:46:15;50.53;;;29.83;;
8881;SDS011;4477;48.736;9.176;2024-03-17T06:48:42;43.83;;;28.17;;
8881;SDS011;4477;48.736;9.176;2024-03-17T06:51:09;44.17;;;27.97;;
8881;SDS011;4477;48.736;9.176;2024-03-17T06:53:36;45.07;;;29.13;;
8881;SDS011;4477;48.736;9.176;2024-03-17T06:56:04;42.10;;;27.73;;
8881;SDS011;4477;48.736;9.176;2024-03-17T06:58:33;40.37;;;26.87;;
8881;SDS011;4477;48.736;9.176;2024-03-17T07:01:00;38.70;;;26.20;;
8881;SDS011;4477;48.736;9.176;2024-03-17T07:03:28;36.40;;;25.30;;
8881;SDS011;4477;48.736;9.176;2024-03-17T07:05:56;37.43;;;27.47;;
8881;SDS011;4477;48.736;9.176;2024-03-17T07:08:27;33.37;;;23.93;;
8881;SDS011;4477;48.736;9.176;2024-03-17T07:10:55;28.70;;;22.73;;
8881;SDS011;4477;48.736;9.176;2024-03-17T07:13:22;32.57;;;23.00;;
8881;SDS011;4477;48.736;9.176;2024-03-17T07:15:51;31.80;;;24.10;;
8881;SDS011;4477;48.736;9.176;2024-03-17T07:18:21;30.60;;;22.87;;
8881;SDS011;4477;48.736;9.176;2024-03-17T07:20:48;31.90;;;23.83;;
8881;SDS011;4477;48.736;9.176;2024-03-17T07:23:15;26.00;;;22.40;;
8881;SDS011;4477;48.736;9.176;2024-03-17T07:25:42;23.70;;;19.53;;
8881;SDS011;4477;48.736;9.176;2024-03-17T07:28:17;22.33;;;19.87;;
8881;SDS011;4477;48.736;9.176;2024-03-17T07:30:47;18.83;;;16.83;;
8881;SDS011;4477;48.736;9.176;2024-03-17T07:33:16;15.60;;;14.00;;
8881;SDS011;4477;48.736;9.176;2024-03-17T07:35:46;12.83;;;11.30;;
8881;SDS011;4477;48.736;9.176;2024-03-17T07:38:14;12.17;;;10.97;;
8881;SDS011;4477;48.736;9.176;2024-03-17T07:40:41;10.53;;;9.53;;
8881;SDS011;4477;48.736;9.176;2024-03-17T07:43:08;9.60;;;8.60;;
8881;SDS011;4477;48.736;9.176;2024-03-17T07:45:36;9.60;;;8.60;;
8881;SDS011;4477;48.736;9.176;2024-03-17T07:48:03;9.93;;;8.93;;
8881;SDS011;4477;48.736;9.176;2024-03-17T07:50:32;9.83;;;8.73;;
8881;SDS011;4477;48.736;9.176;2024-03-17T07:53:00;8.87;;;7.30;;
8881;SDS011;4477;48.736;9.176;2024-03-17T07:55:28;7.43;;;6.67;;
8881;SDS011;4477;48.736;9.176;2024-03-17T07:57:56;8.13;;;7.33;;
8881;SDS011;4477;48.736;9.176;2024-03-17T08:00:23;8.97;;;7.67;;
8881;SDS011;4477;48.736;9.176;2024-03-17T08:02:50;8.00;;;7.20;;
8881;SDS011;4477;48.736;9.176;2024-03-17T08:05:17;8.40;;;7.57;;
8881;SDS011;4477;48.736;9.176;2024-03-17T08:07:46;8.83;;;7.27;;
8881;SDS011;4477;48.736;9.176;2024-03-17T08:10:16;8.13;;;7.33;;
8881;SDS011;4477;48.736;9.176;2024-03-17T08:12:43;9.10;;;8.10;;
8881;SDS011;4477;48.736;9.176;2024-03-17T08:15:11;8.80;;;7.90;;
8881;SDS011;4477;48.736;9.176;2024-03-17T08:17:39;9.67;;;8.63;;
8881;SDS011;4477;48.736;9.176;2024-03-17T08:20:06;11.70;;;9.00;;
8881;SDS011;4477;48.736;9.176;2024-03-17T08:22:33;8.50;;;7.70;;
8881;SDS011;4477;48.736;9.176;2024-03-17T08:25:02;9.37;;;8.37;;
8881;SDS011;4477;48.736;9.176;2024-03-17T08:27:30;8.00;;;7.10;;
8881;SDS011;4477;48.736;9.176;2024-03-17T08:29:58;7.90;;;7.10;;
8881;SDS011;4477;48.736;9.176;2024-03-17T08:32:33;7.20;;;6.50;;
8881;SDS011;4477;48.736;9.176;2024-03-17T08:35:08;8.70;;;7.43;;
8881;SDS011;4477;48.736;9.176;2024-03-17T08:38:04;7.87;;;7.00;;
8881;SDS011;4477;48.736;9.176;2024-03-17T08:40:45;6.80;;;6.13;;
8881;SDS011;4477;48.736;9.176;2024-03-17T08:43:12;8.73;;;6.43;;
8881;SDS011;4477;48.736;9.176;2024-03-17T08:45:40;6.93;;;6.10;;
8881;SDS011;4477;48.736;9.176;2024-03-17T08:48:07;7.90;;;7.10;;
8881;SDS011;4477;48.736;9.176;2024-03-17T08:50:36;6.80;;;6.10;;
8881;SDS011;4477;48.736;9.176;2024-03-17T08:53:03;7.00;;;6.30;;
8881;SDS011;4477;48.736;9.176;2024-03-17T08:55:31;6.67;;;6.07;;
8881;SDS011;4477;48.736;9.176;2024-03-17T08:58:00;6.00;;;5.40;;
8881;SDS011;4477;48.736;9.176;2024-03-17T09:00:27;5.43;;;4.93;;
8881;SDS011;4477;48.736;9.176;2024-03-17T09:02:55;5.27;;;4.77;;
8881;SDS011;4477;48.736;9.176;2024-03-17T09:05:23;5.77;;;4.80;;
8881;SDS011;4477;48.736;9.176;2024-03-17T09:07:50;4.27;;;3.87;;
8881;SDS011;4477;48.736;9.176;2024-03-17T09:10:17;4.50;;;4.00;;
8881;SDS011;4477;48.736;9.176;2024-03-17T09:12:44;4.07;;;3.67;;
8881;SDS011;4477;48.736;9.176;2024-03-17T09:15:14;4.83;;;3.37;;
8881;SDS011;4477;48.736;9.176;2024-03-17T09:17:40;3.67;;;3.17;;
8881;SDS011;4477;48.736;9.176;2024-03-17T09:20:09;4.17;;;2.70;;
8881;SDS011;4477;48.736;9.176;2024-03-17T09:22:39;3.40;;;2.90;;
8881;SDS011;4477;48.736;9.176;2024-03-17T09:25:07;4.63;;;3.37;;
8881;SDS011;4477;48.736;9.176;2024-03-17T09:27:36;3.67;;;2.87;;
8881;SDS011;4477;48.736;9.176;2024-03-17T09:30:04;2.87;;;2.53;;
8881;SDS011;4477;48.736;9.176;2024-03-17T09:32:36;3.90;;;3.17;;
8881;SDS011;4477;48.736;9.176;2024-03-17T09:35:04;3.50;;;2.60;;
8881;SDS011;4477;48.736;9.176;2024-03-17T09:37:32;3.30;;;2.63;;
8881;SDS011;4477;48.736;9.176;2024-03-17T09:39:59;3.27;;;2.77;;
8881;SDS011;4477;48.736;9.176;2024-03-17T09:42:27;3.07;;;2.73;;
8881;SDS011;4477;48.736;9.176;2024-03-17T09:44:54;3.50;;;2.73;;
8881;SDS011;4477;48.736;9.176;2024-03-17T09:47:25;2.73;;;2.53;;
8881;SDS011;4477;48.736;9.176;2024-03-17T09:49:54;3.13;;;2.80;;
8881;SDS011;4477;48.736;9.176;2024-03-17T09:52:22;3.60;;;2.90;;
8881;SDS011;4477;48.736;9.176;2024-03-17T09:54:51;3.20;;;2.67;;
8881;SDS011;4477;48.736;9.176;2024-03-17T09:57:23;4.27;;;3.10;;
8881;SDS011;4477;48.736;9.176;2024-03-17T09:59:52;3.20;;;2.90;;
8881;SDS011;4477;48.736;9.176;2024-03-17T10:02:20;4.17;;;3.03;;
8881;SDS011;4477;48.736;9.176;2024-03-17T10:04:48;4.53;;;2.60;;
8881;SDS011;4477;48.736;9.176;2024-03-17T10:07:17;3.57;;;3.00;;
8881;SDS011;4477;48.736;9.176;2024-03-17T10:16:03;3.37;;;2.77;;
8881;SDS011;4477;48.736;9.176;2024-03-17T10:18:31;3.50;;;3.17;;
8881;SDS011;4477;48.736;9.176;2024-03-17T10:21:00;2.97;;;2.63;;
8881;SDS011;4477;48.736;9.176;2024-03-17T10:23:28;4.20;;;3.17;;
8881;SDS011;4477;48.736;9.176;2024-03-17T10:25:55;4.00;;;3.00;;
8881;SDS011;4477;48.736;9.176;2024-03-17T10:28:23;4.20;;;3.10;;
8881;SDS011;4477;48.736;9.176;2024-03-17T10:30:59;5.03;;;3.37;;
8881;SDS011;4477;48.736;9.176;2024-03-17T10:33:27;3.70;;;3.17;;
8881;SDS011;4477;48.736;9.176;2024-03-17T10:36:02;3.07;;;2.80;;
8881;SDS011;4477;48.736;9.176;2024-03-17T10:38:32;4.03;;;2.80;;
8881;SDS011;4477;48.736;9.176;2024-03-17T10:41:00;4.80;;;3.50;;
8881;SDS011;4477;48.736;9.176;2024-03-17T10:43:28;3.50;;;2.73;;
8881;SDS011;4477;48.736;9.176;2024-03-17T10:45:56;3.60;;;2.60;;
8881;SDS011;4477;48.736;9.176;2024-03-17T10:48:26;2.90;;;2.70;;
8881;SDS011;4477;48.736;9.176;2024-03-17T10:50:58;4.00;;;2.83;;
8881;SDS011;4477;48.736;9.176;2024-03-17T10:53:27;3.70;;;2.80;;
8881;SDS011;4477;48.736;9.176;2024-03-17T10:56:04;2.77;;;2.33;;
8881;SDS011;4477;48.736;9.176;2024-03-17T10:58:34;2.70;;;2.50;;
8881;SDS011;4477;48.736;9.176;2024-03-17T11:01:03;3.00;;;2.70;;
8881;SDS011;4477;48.736;9.176;2024-03-17T11:03:32;2.80;;;2.40;;
8881;SDS011;4477;48.736;9.176;2024-03-17T11:06:02;2.63;;;2.43;;
8881;SDS011;4477;48.736;9.176;2024-03-17T11:08:31;3.97;;;2.50;;
8881;SDS011;4477;48.736;9.176;2024-03-17T11:11:01;3.53;;;2.40;;
8881;SDS011;4477;48.736;9.176;2024-03-17T11:13:29;2.77;;;2.27;;
8881;SDS011;4477;48.736;9.176;2024-03-17T11:15:58;3.80;;;2.87;;
8881;SDS011;4477;48.736;9.176;2024-03-17T11:18:36;3.13;;;2.60;;
8881;SDS011;4477;48.736;9.176;2024-03-17T11:23:57;3.90;;;2.57;;
8881;SDS011;4477;48.736;9.176;2024-03-17T11:26:28;4.47;;;2.83;;
8881;SDS011;4477;48.736;9.176;2024-03-17T11:28:56;3.57;;;2.77;;
8881;SDS011;4477;48.736;9.176;2024-03-17T11:31:35;3.17;;;2.87;;
8881;SDS011;4477;48.736;9.176;2024-03-17T11:34:33;4.00;;;2.30;;
8881;SDS011;4477;48.736;9.176;2024-03-17T11:37:05;3.20;;;2.67;;
8881;SDS011;4477;48.736;9.176;2024-03-17T11:39:47;4.83;;;2.60;;
8881;SDS011;4477;48.736;9.176;2024-03-17T11:42:26;3.03;;;2.40;;
8881;SDS011;4477;48.736;9.176;2024-03-17T11:44:55;3.47;;;2.90;;
8881;SDS011;4477;48.736;9.176;2024-03-17T11:47:32;4.47;;;2.63;;
8881;SDS011;4477;48.736;9.176;2024-03-17T11:50:05;3.17;;;2.30;;
8881;SDS011;4477;48.736;9.176;2024-03-17T11:52:34;2.70;;;2.50;;
8881;SDS011;4477;48.736;9.176;2024-03-17T11:55:02;4.10;;;2.70;;
8881;SDS011;4477;48.736;9.176;2024-03-17T11:57:30;4.13;;;2.70;;
8881;SDS011;4477;48.736;9.176;2024-03-17T11:59:57;3.40;;;2.23;;
8881;SDS011;4477;48.736;9.176;2024-03-17T12:02:24;2.70;;;2.30;;
8881;SDS011;4477;48.736;9.176;2024-03-17T12:04:52;2.50;;;2.20;;
8881;SDS011;4477;48.736;9.176;2024-03-17T12:07:20;3.90;;;2.27;;
8881;SDS011;4477;48.736;9.176;2024-03-17T12:09:49;2.67;;;2.20;;
8881;SDS011;4477;48.736;9.176;2024-03-17T12:12:17;3.53;;;2.20;;
8881;SDS011;4477;48.736;9.176;2024-03-17T12:14:46;5.27;;;2.40;;
8881;SDS011;4477;48.736;9.176;2024-03-17T12:17:13;2.97;;;1.87;;
8881;SDS011;4477;48.736;9.176;2024-03-17T12:19:44;2.30;;;2.10;;
8881;SDS011;4477;48.736;9.176;2024-03-17T12:22:14;2.93;;;2.03;;
8881;SDS011;4477;48.736;9.176;2024-03-17T12:24:51;3.07;;;2.23;;
8881;SDS011;4477;48.736;9.176;2024-03-17T12:28:04;2.87;;;1.90;;
8881;SDS011;4477;48.736;9.176;2024-03-17T12:44:07;3.30;;;3.00;;
8881;SDS011;4477;48.736;9.176;2024-03-17T12:46:47;4.23;;;3.83;;
8881;SDS011;4477;48.736;9.176;2024-03-17T12:49:15;3.90;;;3.23;;
8881;SDS011;4477;48.736;9.176;2024-03-17T12:51:41;3.80;;;3.40;;
8881;SDS011;4477;48.736;9.176;2024-03-17T12:54:14;4.87;;;2.10;;
8881;SDS011;4477;48.736;9.176;2024-03-17T12:56:40;3.17;;;1.87;;
8881;SDS011;4477;48.736;9.176;2024-03-17T12:59:26;2.50;;;1.60;;
8881;SDS011;4477;48.736;9.176;2024-03-17T13:02:23;1.90;;;1.67;;
8881;SDS011;4477;48.736;9.176;2024-03-17T13:07:43;4.00;;;3.23;;
8881;SDS011;4477;48.736;9.176;2024-03-17T13:10:12;12.23;;;10.20;;
8881;SDS011;4477;48.736;9.176;2024-03-17T13:12:41;16.57;;;14.87;;
8881;SDS011;4477;48.736;9.176;2024-03-17T13:15:10;15.37;;;13.83;;
8881;SDS011;4477;48.736;9.176;2024-03-17T13:17:38;3.47;;;3.10;;
8881;SDS011;4477;48.736;9.176;2024-03-17T13:20:06;4.43;;;4.03;;
8881;SDS011;4477;48.736;9.176;2024-03-17T13:22:36;7.23;;;6.63;;
8881;SDS011;4477;48.736;9.176;2024-03-17T13:25:06;8.13;;;7.53;;
8881;SDS011;4477;48.736;9.176;2024-03-17T13:27:39;1.80;;;1.37;;
8881;SDS011;4477;48.736;9.176;2024-03-17T13:30:07;2.30;;;1.20;;
8881;SDS011;4477;48.736;9.176;2024-03-17T13:32:36;1.33;;;1.10;;
8881;SDS011;4477;48.736;9.176;2024-03-17T13:35:04;1.90;;;1.40;;
8881;SDS011;4477;48.736;9.176;2024-03-17T13:37:33;2.53;;;1.73;;
8881;SDS011;4477;48.736;9.176;2024-03-17T13:40:01;2.63;;;1.50;;
8881;SDS011;4477;48.736;9.176;2024-03-17T13:42:30;2.60;;;1.90;;
8881;SDS011;4477;48.736;9.176;2024-03-17T13:44:57;2.80;;;1.10;;
8881;SDS011;4477;48.736;9.176;2024-03-17T13:47:25;1.97;;;1.00;;
8881;SDS011;4477;48.736;9.176;2024-03-17T13:49:52;1.40;;;1.10;;
8881;SDS011;4477;48.736;9.176;2024-03-17T13:52:18;3.40;;;1.30;;
8881;SDS011;4477;48.736;9.176;2024-03-17T13:54:45;1.27;;;1.10;;
8881;SDS011;4477;48.736;9.176;2024-03-17T13:57:12;2.40;;;1.13;;
8881;SDS011;4477;48.736;9.176;2024-03-17T13:59:40;2.67;;;1.40;;
8881;SDS011;4477;48.736;9.176;2024-03-17T14:02:08;2.47;;;1.10;;
8881;SDS011;4477;48.736;9.176;2024-03-17T14:04:40;2.03;;;1.00;;
8881;SDS011;4477;48.736;9.176;2024-03-17T14:07:07;2.27;;;1.10;;
8881;SDS011;4477;48.736;9.176;2024-03-17T14:09:34;1.57;;;1.07;;
8881;SDS011;4477;48.736;9.176;2024-03-17T14:12:01;2.73;;;1.20;;
8881;SDS011;4477;48.736;9.176;2024-03-17T14:14:28;4.97;;;1.30;;
8881;SDS011;4477;48.736;9.176;2024-03-17T14:16:55;2.70;;;1.17;;
8881;SDS011;4477;48.736;9.176;2024-03-17T14:19:22;1.93;;;1.20;;
8881;SDS011;4477;48.736;9.176;2024-03-17T14:21:50;1.97;;;1.27;;
8881;SDS011;4477;48.736;9.176;2024-03-17T14:24:17;1.70;;;1.20;;
8881;SDS011;4477;48.736;9.176;2024-03-17T14:26:44;1.20;;;1.00;;
8881;SDS011;4477;48.736;9.176;2024-03-17T14:29:14;2.27;;;1.10;;
8881;SDS011;4477;48.736;9.176;2024-03-17T14:31:41;1.33;;;1.03;;
8881;SDS011;4477;48.736;9.176;2024-03-17T14:34:09;1.00;;;0.90;;
8881;SDS011;4477;48.736;9.176;2024-03-17T14:36:36;1.50;;;1.20;;
8881;SDS011;4477;48.736;9.176;2024-03-17T14:39:07;1.30;;;1.10;;
8881;SDS011;4477;48.736;9.176;2024-03-17T14:41:34;3.60;;;1.20;;
8881;SDS011;4477;48.736;9.176;2024-03-17T14:44:01;1.60;;;1.10;;
8881;SDS011;4477;48.736;9.176;2024-03-17T14:46:29;1.63;;;0.87;;
8881;SDS011;4477;48.736;9.176;2024-03-17T14:48:57;1.63;;;1.10;;
8881;SDS011;4477;48.736;9.176;2024-03-17T14:51:24;2.10;;;1.43;;
8881;SDS011;4477;48.736;9.176;2024-03-17T14:53:51;2.33;;;1.30;;
8881;SDS011;4477;48.736;9.176;2024-03-17T14:56:19;1.63;;;1.00;;
8881;SDS011;4477;48.736;9.176;2024-03-17T14:58:47;5.17;;;3.90;;
8881;SDS011;4477;48.736;9.176;2024-03-17T15:01:15;2.00;;;1.43;;
8881;SDS011;4477;48.736;9.176;2024-03-17T15:03:42;2.37;;;1.10;;
8881;SDS011;4477;48.736;9.176;2024-03-17T15:06:11;1.53;;;1.10;;
8881;SDS011;4477;48.736;9.176;2024-03-17T15:08:39;3.20;;;1.50;;
8881;SDS011;4477;48.736;9.176;2024-03-17T15:11:07;1.83;;;1.27;;
8881;SDS011;4477;48.736;9.176;2024-03-17T15:13:37;1.63;;;1.20;;
8881;SDS011;4477;48.736;9.176;2024-03-17T15:16:05;2.70;;;1.37;;
8881;SDS011;4477;48.736;9.176;2024-03-17T15:18:32;1.50;;;1.17;;
8881;SDS011;4477;48.736;9.176;2024-03-17T15:20:59;2.13;;;1.47;;
8881;SDS011;4477;48.736;9.176;2024-03-17T15:23:31;1.37;;;1.20;;
8881;SDS011;4477;48.736;9.176;2024-03-17T15:25:59;2.60;;;1.40;;
8881;SDS011;4477;48.736;9.176;2024-03-17T15:28:31;2.27;;;1.20;;
8881;SDS011;4477;48.736;9.176;2024-03-17T15:31:00;2.10;;;1.10;;
8881;SDS011;4477;48.736;9.176;2024-03-17T15:33:29;2.30;;;1.20;;